Etusivu
METAR-TAF:

METAR-TAF

Lentoasemat :

Wemindji, Quebec, Kanada

Leveyspiiri: 53-00-39N, Pituuspiiri: 078-49-49W, korkeus merenpinnasta: 15 m

Tämänhetkinen sää

Tämä raportti tehtiin 27 minuuttia sitten, kello 18.00 UTC
Tuuli 18 kn lännestä/luoteesta puuskistuen 25 kn:hen
Lämpötila 0°C
Kosteus 86%
Ilmanpaine 1013 hPa
Näkyvyys: 16.1 km
Pilvistä 1100 ft:n korkeudessa

METAR: CYNC 261800Z 30018G25KT 10SM OVC011 00/M02 A2990 RMK SC8 SLP126

Aika: 14:27 (18:27 UTC)


TAF: puuttuu

Säähavainnot ja -ennusteet yli 4000 lentoasemalta (METAR- ja TAF-raportit).

Käytössä olevat sääasemat on merkitty karttaan keltaisilla ja punaisilla pisteillä.

Aseta hiiri pisteen päälle nähdäksesi sääaseman nimen.

Klikkaa sitten nähdäksesi säähavainnot ja -ennusteet.

Kartan vaihtaminen: klikkaa mustalla rastilla varustettuja vihreitä pisteitä, niin voit zoomata sisään; viivalla varustettua vihreää pistettä, niin voit zoomata ulos tai vihreitä nuolia, niin pääset viereisille kartoille.


METAR-TAF: